createdAt,value
2019-04-11T00:02:10.770Z,3.70
2019-04-11T00:04:40.252Z,3.70
2019-04-11T00:07:09.964Z,3.70
2019-04-11T00:09:39.393Z,3.70
2019-04-11T00:12:08.949Z,3.70
2019-04-11T00:14:40.021Z,3.60
2019-04-11T00:17:09.964Z,3.60
2019-04-11T00:19:39.864Z,3.50
2019-04-11T00:22:09.422Z,3.50
2019-04-11T00:24:38.840Z,3.50
2019-04-11T00:27:08.746Z,3.50
2019-04-11T00:29:38.682Z,3.40
2019-04-11T00:32:09.733Z,3.40
2019-04-11T00:34:39.442Z,3.40
2019-04-11T00:37:09.111Z,3.40
2019-04-11T00:39:39.627Z,3.30
2019-04-11T00:42:10.263Z,3.30
2019-04-11T00:44:41.083Z,3.40
2019-04-11T00:47:11.071Z,3.30
2019-04-11T00:49:40.860Z,3.30
2019-04-11T00:52:10.583Z,3.30
2019-04-11T00:54:40.730Z,3.20
2019-04-11T00:57:10.681Z,3.20
2019-04-11T00:59:40.614Z,3.20
2019-04-11T01:02:11.510Z,3.20
2019-04-11T01:04:41.297Z,3.20
2019-04-11T01:07:11.109Z,3.20
2019-04-11T01:09:42.219Z,3.20
2019-04-11T01:12:12.213Z,3.10
2019-04-11T01:14:42.700Z,3.10
2019-04-11T01:17:12.799Z,3.10
2019-04-11T01:19:42.696Z,3.10
2019-04-11T01:22:12.361Z,3.00
2019-04-11T01:24:42.360Z,3.00
2019-04-11T01:27:11.907Z,3.00
2019-04-11T01:29:41.911Z,2.90
2019-04-11T01:32:13.900Z,3.00
2019-04-11T01:34:44.530Z,3.00
2019-04-11T01:37:14.005Z,2.90
2019-04-11T01:39:45.435Z,2.90
2019-04-11T01:42:16.170Z,2.90
2019-04-11T01:44:47.161Z,2.90
2019-04-11T01:47:21.174Z,2.90
2019-04-11T01:49:50.503Z,2.80
2019-04-11T01:52:20.346Z,2.80
2019-04-11T01:54:50.091Z,2.80
2019-04-11T01:57:20.079Z,2.80
2019-04-11T01:59:51.312Z,2.80
2019-04-11T02:02:39.848Z,2.80
2019-04-11T02:05:20.943Z,2.70
2019-04-11T02:07:51.068Z,2.70
2019-04-11T02:10:21.031Z,2.70
2019-04-11T02:12:51.117Z,2.70
2019-04-11T02:15:21.983Z,2.70
2019-04-11T02:17:51.309Z,2.60
2019-04-11T02:20:20.967Z,2.60
2019-04-11T02:22:52.881Z,2.60
2019-04-11T02:25:36.693Z,2.50
2019-04-11T02:28:08.739Z,2.50
2019-04-11T02:30:41.686Z,2.50
2019-04-11T02:33:12.176Z,2.50
2019-04-11T02:35:44.373Z,2.50
2019-04-11T02:38:14.939Z,2.40
2019-04-11T02:40:45.985Z,2.40
2019-04-11T02:43:17.617Z,2.50
2019-04-11T02:46:01.714Z,2.40
2019-04-11T02:48:18.491Z,2.40
2019-04-11T02:50:50.202Z,2.40
2019-04-11T02:53:21.325Z,2.40
2019-04-11T02:55:52.131Z,2.30
2019-04-11T02:58:23.039Z,2.30
2019-04-11T03:00:55.018Z,2.30
2019-04-11T03:03:25.341Z,2.30
2019-04-11T03:05:57.594Z,2.30
2019-04-11T03:08:28.263Z,2.20
2019-04-11T03:10:59.523Z,2.20
2019-04-11T03:13:29.644Z,2.20
2019-04-11T03:16:18.721Z,2.20
2019-04-11T03:18:45.952Z,2.20
2019-04-11T03:21:09.047Z,2.10
2019-04-11T03:23:35.872Z,2.10
2019-04-11T03:26:07.514Z,2.10
2019-04-11T03:28:40.543Z,2.10
2019-04-11T03:31:42.121Z,2.10
2019-04-11T03:34:31.439Z,2.10
2019-04-11T03:39:05.450Z,2.00
2019-04-11T03:41:32.523Z,2.00
2019-04-11T03:43:59.082Z,2.00
2019-04-11T03:46:38.456Z,2.00
2019-04-11T03:49:02.661Z,2.00
2019-04-11T03:51:23.128Z,1.90
2019-04-11T03:53:53.607Z,1.90
2019-04-11T03:56:24.350Z,1.90
2019-04-11T03:58:55.407Z,1.90
2019-04-11T04:01:26.725Z,1.90
2019-04-11T04:03:58.210Z,1.90
2019-04-11T04:06:28.689Z,1.80
2019-04-11T04:08:58.515Z,1.80
2019-04-11T04:11:30.463Z,1.80
2019-04-11T04:14:15.059Z,1.80
2019-04-11T04:16:52.431Z,1.80
2019-04-11T04:19:40.145Z,1.80
2019-04-11T04:22:16.082Z,1.70
2019-04-11T04:24:47.567Z,1.70
2019-04-11T04:27:18.078Z,1.70
2019-04-11T04:29:52.952Z,1.70
2019-04-11T04:32:20.772Z,1.70
2019-04-11T04:34:53.141Z,1.70
2019-04-11T04:37:24.843Z,1.70
2019-04-11T04:40:13.504Z,1.60
2019-04-11T04:42:31.474Z,1.60
2019-04-11T04:44:56.020Z,1.60
2019-04-11T04:47:38.530Z,1.60
2019-04-11T04:49:57.124Z,1.60
2019-04-11T04:52:28.044Z,1.50
2019-04-11T04:54:59.434Z,1.50
2019-04-11T04:57:29.812Z,1.50
2019-04-11T05:00:00.712Z,1.50
2019-04-11T05:02:32.684Z,1.50
2019-04-11T05:05:04.292Z,1.50
2019-04-11T05:07:37.920Z,1.50
2019-04-11T05:10:08.581Z,1.50
2019-04-11T05:12:38.786Z,1.50
2019-04-11T05:15:10.093Z,1.50
2019-04-11T05:17:41.778Z,1.50
2019-04-11T05:20:11.947Z,1.50
2019-04-11T05:22:41.601Z,1.50
2019-04-11T05:25:11.122Z,1.50
2019-04-11T05:27:40.455Z,1.50
2019-04-11T05:30:11.171Z,1.50
2019-04-11T05:32:41.724Z,1.60
2019-04-11T05:35:11.713Z,1.60
2019-04-11T05:37:41.121Z,1.60
2019-04-11T05:40:11.264Z,1.60
2019-04-11T05:42:41.698Z,1.60
2019-04-11T05:45:16.950Z,1.60
2019-04-11T05:47:43.486Z,1.70
2019-04-11T05:50:26.526Z,1.70
2019-04-11T05:52:56.717Z,1.80
2019-04-11T05:55:28.006Z,1.70
2019-04-11T05:57:58.653Z,1.80
2019-04-11T06:00:37.518Z,1.80
2019-04-11T06:03:09.930Z,1.90
2019-04-11T06:05:49.952Z,2.00
2019-04-11T06:08:25.500Z,2.00
2019-04-11T06:11:14.418Z,2.10
2019-04-11T06:13:44.685Z,2.20
2019-04-11T06:16:14.629Z,2.50
2019-04-11T06:19:01.086Z,2.70
2019-04-11T06:21:35.973Z,2.80
2019-04-11T06:24:23.890Z,2.70
2019-04-11T06:27:17.361Z,2.80
2019-04-11T06:29:52.868Z,2.80
2019-04-11T06:32:36.968Z,2.80
2019-04-11T06:35:09.684Z,2.80
2019-04-11T06:37:41.581Z,2.90
2019-04-11T06:40:32.685Z,2.90
2019-04-11T06:43:13.879Z,3.00
2019-04-11T06:45:54.421Z,3.10
2019-04-11T06:48:31.997Z,3.10
2019-04-11T06:51:03.877Z,3.20
2019-04-11T06:53:36.395Z,3.30
2019-04-11T06:56:25.036Z,3.40
2019-04-11T06:58:59.705Z,3.50
2019-04-11T07:01:30.420Z,3.50
2019-04-11T07:04:05.057Z,3.60
2019-04-11T07:06:39.829Z,3.70
2019-04-11T07:09:16.750Z,3.80
2019-04-11T07:11:48.472Z,3.90
2019-04-11T07:14:26.888Z,4.00
2019-04-11T07:17:15.413Z,4.10
2019-04-11T07:19:46.597Z,4.10
2019-04-11T07:22:34.786Z,4.20
2019-04-11T07:25:22.790Z,4.30
2019-04-11T07:28:03.645Z,4.40
2019-04-11T07:30:51.115Z,4.50
2019-04-11T07:33:31.398Z,4.50
2019-04-11T07:36:18.603Z,4.60
2019-04-11T07:39:05.546Z,4.70
2019-04-11T07:41:36.723Z,4.80
2019-04-11T07:44:11.341Z,4.90
2019-04-11T07:46:49.510Z,5.00
2019-04-11T07:49:38.887Z,5.10
2019-04-11T07:52:11.000Z,5.20
2019-04-11T07:54:41.026Z,5.30
2019-04-11T07:57:12.890Z,5.40
2019-04-11T07:59:44.459Z,5.40
2019-04-11T08:02:31.813Z,5.50
2019-04-11T08:05:11.482Z,5.60
2019-04-11T08:07:57.690Z,5.70
2019-04-11T08:10:37.708Z,5.80
2019-04-11T08:13:14.849Z,5.90
2019-04-11T08:15:58.167Z,6.10
2019-04-11T08:18:32.802Z,6.20
2019-04-11T08:21:06.601Z,6.20
2019-04-11T08:23:36.086Z,6.30
2019-04-11T08:26:26.254Z,6.40
2019-04-11T08:29:04.206Z,6.50
2019-04-11T08:31:48.690Z,6.60
2019-04-11T08:34:20.687Z,6.70
2019-04-11T08:36:55.346Z,6.90
2019-04-11T08:39:25.791Z,7.00
2019-04-11T08:42:12.836Z,7.10
2019-04-11T08:44:42.356Z,7.20
2019-04-11T08:47:11.957Z,7.20
2019-04-11T08:49:42.943Z,7.20
2019-04-11T08:52:14.246Z,7.20
2019-04-11T08:54:59.949Z,7.30
2019-04-11T08:57:33.976Z,7.30
2019-04-11T09:00:10.198Z,7.40
2019-04-11T09:02:40.795Z,7.40
2019-04-11T09:05:27.685Z,7.40
2019-04-11T09:08:14.209Z,7.50
2019-04-11T09:10:46.346Z,7.60
2019-04-11T09:13:23.298Z,7.70
2019-04-11T09:16:10.700Z,7.70
2019-04-11T09:18:41.885Z,7.80
2019-04-11T09:21:28.855Z,8.00
2019-04-11T09:23:58.344Z,8.00
2019-04-11T09:26:29.782Z,8.10
2019-04-11T09:28:59.861Z,8.30
2019-04-11T09:31:49.128Z,8.30
2019-04-11T09:34:25.986Z,8.30
2019-04-11T09:36:57.504Z,8.40
2019-04-11T09:39:37.744Z,8.40
2019-04-11T09:42:11.741Z,8.50
2019-04-11T09:44:49.276Z,8.60
2019-04-11T09:47:36.735Z,8.70
2019-04-11T09:50:28.712Z,8.90
2019-04-11T09:53:00.110Z,8.90
2019-04-11T09:55:39.756Z,8.90
2019-04-11T09:58:13.659Z,8.90
2019-04-11T10:00:47.617Z,9.00
2019-04-11T10:03:19.695Z,9.10
2019-04-11T10:05:51.621Z,9.10
2019-04-11T10:08:33.065Z,9.30
2019-04-11T10:11:07.908Z,9.30
2019-04-11T10:13:57.309Z,9.40
2019-04-11T10:16:28.610Z,9.60
2019-04-11T10:19:03.367Z,9.70
2019-04-11T10:21:43.700Z,9.90
2019-04-11T10:24:30.564Z,10.10
2019-04-11T10:27:07.329Z,10.20
2019-04-11T10:29:51.128Z,10.30
2019-04-11T10:32:23.241Z,10.30
2019-04-11T10:34:57.819Z,10.30
2019-04-11T10:37:27.932Z,10.40
2019-04-11T10:40:02.069Z,10.60
2019-04-11T10:42:32.804Z,10.80
2019-04-11T10:45:22.694Z,10.90
2019-04-11T10:47:54.311Z,11.00
2019-04-11T10:50:44.488Z,11.30
2019-04-11T10:53:14.983Z,11.50
2019-04-11T10:55:46.640Z,11.70
2019-04-11T10:58:18.454Z,11.40
2019-04-11T11:00:53.431Z,11.20
2019-04-11T11:03:29.022Z,11.30
2019-04-11T11:06:05.530Z,11.10
2019-04-11T11:08:37.620Z,11.20
2019-04-11T11:11:16.444Z,10.90
2019-04-11T11:13:50.518Z,10.90
2019-04-11T11:16:22.305Z,10.90
2019-04-11T11:19:27.480Z,11.00
2019-04-11T11:21:35.243Z,11.10
2019-04-11T11:24:22.232Z,11.00
2019-04-11T11:26:55.586Z,10.90
2019-04-11T11:29:27.029Z,11.00
2019-04-11T11:31:58.229Z,11.10
2019-04-11T11:34:30.446Z,11.30
2019-04-11T11:37:01.609Z,11.60
2019-04-11T11:39:33.365Z,11.90
2019-04-11T11:42:20.630Z,12.30
2019-04-11T11:44:55.249Z,12.40
2019-04-11T11:47:43.179Z,12.80
2019-04-11T11:50:18.735Z,13.00
2019-04-11T11:52:57.342Z,13.40
2019-04-11T11:55:29.436Z,13.60
2019-04-11T11:58:01.923Z,13.80
2019-04-11T12:00:31.733Z,13.90
2019-04-11T12:03:25.980Z,14.10
2019-04-11T12:05:56.636Z,14.20
2019-04-11T12:08:47.455Z,14.80
2019-04-11T12:11:16.157Z,15.20
2019-04-11T12:14:04.053Z,15.50
2019-04-11T12:16:58.711Z,15.50
2019-04-11T12:19:28.891Z,15.50
2019-04-11T12:21:59.994Z,15.40
2019-04-11T12:24:32.181Z,15.30
2019-04-11T12:27:04.507Z,15.60
2019-04-11T12:29:52.303Z,15.80
2019-04-11T12:32:24.671Z,16.00
2019-04-11T12:34:56.087Z,15.90
2019-04-11T12:37:39.277Z,16.00
2019-04-11T12:40:10.760Z,16.00
2019-04-11T12:42:41.276Z,16.20
2019-04-11T12:45:12.664Z,16.40
2019-04-11T12:47:42.578Z,16.10
2019-04-11T12:50:20.297Z,15.30
2019-04-11T12:53:00.129Z,15.20
2019-04-11T12:55:31.272Z,15.40
2019-04-11T12:58:18.857Z,15.20
2019-04-11T13:01:04.947Z,15.10
2019-04-11T13:03:52.424Z,15.30
2019-04-11T13:06:35.105Z,15.50
2019-04-11T13:09:17.558Z,15.50
2019-04-11T13:11:57.542Z,15.40
2019-04-11T13:14:40.767Z,15.40
2019-04-11T13:17:14.634Z,15.10
2019-04-11T13:20:04.838Z,14.90
2019-04-11T13:22:32.985Z,15.10
2019-04-11T13:25:20.206Z,15.20
2019-04-11T13:27:53.797Z,15.40
2019-04-11T13:30:30.486Z,15.40
2019-04-11T13:32:59.883Z,15.60
2019-04-11T13:35:30.891Z,15.30
2019-04-11T13:38:04.809Z,15.70
2019-04-11T13:40:45.055Z,15.80
2019-04-11T13:43:33.310Z,15.80
2019-04-11T13:46:10.197Z,15.20
2019-04-11T13:48:57.254Z,15.00
2019-04-11T13:51:30.962Z,14.70
2019-04-11T13:54:14.562Z,14.60
2019-04-11T13:57:03.660Z,14.90
2019-04-11T13:59:34.645Z,15.40
2019-04-11T14:02:16.242Z,15.90
2019-04-11T14:04:48.305Z,16.00
2019-04-11T14:07:21.275Z,16.00
2019-04-11T14:09:55.344Z,15.90
2019-04-11T14:12:33.470Z,16.00
2019-04-11T14:15:23.627Z,16.30
2019-04-11T14:18:11.780Z,16.50
2019-04-11T14:20:46.177Z,16.30
2019-04-11T14:23:26.156Z,16.80
2019-04-11T14:25:59.937Z,16.60
2019-04-11T14:28:33.624Z,16.60
2019-04-11T14:31:22.172Z,16.40
2019-04-11T14:33:56.598Z,16.10
2019-04-11T14:36:43.967Z,16.10
2019-04-11T14:39:14.941Z,16.20
2019-04-11T14:41:51.757Z,16.30
2019-04-11T14:44:21.714Z,16.40
2019-04-11T14:46:52.814Z,16.40
2019-04-11T14:49:22.302Z,16.20
2019-04-11T14:51:59.273Z,16.00
2019-04-11T14:54:30.429Z,15.50
2019-04-11T14:57:07.413Z,15.40
2019-04-11T14:59:41.175Z,15.30
2019-04-11T15:02:28.636Z,15.30
2019-04-11T15:05:02.297Z,15.20
2019-04-11T15:07:33.285Z,15.40
2019-04-11T15:10:14.667Z,15.50
2019-04-11T15:12:45.769Z,15.50
2019-04-11T15:15:29.227Z,15.10
2019-04-11T15:18:00.505Z,15.20
2019-04-11T15:20:54.371Z,15.40
2019-04-11T15:23:19.158Z,15.30
2019-04-11T15:26:07.923Z,15.10
2019-04-11T15:28:44.431Z,14.70
2019-04-11T15:31:18.495Z,14.60
2019-04-11T15:33:48.202Z,14.40
2019-04-11T15:36:19.245Z,14.90
2019-04-11T15:38:59.719Z,15.30
2019-04-11T15:41:31.085Z,15.60
2019-04-11T15:44:20.454Z,15.80
2019-04-11T15:46:50.194Z,15.50
2019-04-11T15:49:31.422Z,15.10
2019-04-11T15:52:06.324Z,15.00
2019-04-11T15:54:51.859Z,15.00
2019-04-11T15:57:26.981Z,14.90
2019-04-11T16:00:04.739Z,14.60
2019-04-11T16:02:52.524Z,14.70
2019-04-11T16:05:39.758Z,14.60
2019-04-11T16:08:13.725Z,14.50
2019-04-11T16:11:02.855Z,14.40
2019-04-11T16:13:32.887Z,14.10
2019-04-11T16:16:06.999Z,14.00
2019-04-11T16:18:39.548Z,14.10
2019-04-11T16:21:18.333Z,14.20
2019-04-11T16:23:43.233Z,14.20
2019-04-11T16:26:14.219Z,14.20
2019-04-11T16:28:45.216Z,14.10
2019-04-11T16:31:14.551Z,13.90
2019-04-11T16:33:54.922Z,13.90
2019-04-11T16:36:27.296Z,13.80
2019-04-11T16:39:01.839Z,13.60
2019-04-11T16:41:48.824Z,13.60
2019-04-11T16:44:31.707Z,13.40
2019-04-11T16:47:19.108Z,13.30
2019-04-11T16:49:48.450Z,13.20
2019-04-11T16:52:17.793Z,13.00
2019-04-11T16:54:47.139Z,12.90
2019-04-11T16:57:16.473Z,12.80
2019-04-11T16:59:49.525Z,12.80
2019-04-11T17:02:17.409Z,12.80
2019-04-11T17:04:46.750Z,12.70
2019-04-11T17:07:27.040Z,12.80
2019-04-11T17:09:58.273Z,12.60
2019-04-11T17:12:27.785Z,12.60
2019-04-11T17:14:57.149Z,12.50
2019-04-11T17:17:26.582Z,12.50
2019-04-11T17:19:56.156Z,12.40
2019-04-11T17:22:28.301Z,12.40
2019-04-11T17:24:57.229Z,12.40
2019-04-11T17:27:26.726Z,12.30
2019-04-11T17:29:56.284Z,12.10
2019-04-11T17:32:26.603Z,12.10
2019-04-11T17:34:56.590Z,12.00
2019-04-11T17:37:26.245Z,12.00
2019-04-11T17:39:55.806Z,11.80
2019-04-11T17:42:25.245Z,11.80
2019-04-11T17:44:55.101Z,11.70
2019-04-11T17:47:26.928Z,11.60
2019-04-11T17:49:55.932Z,11.70
2019-04-11T17:52:25.548Z,11.60
2019-04-11T17:54:55.283Z,11.50
2019-04-11T17:57:27.112Z,11.50
2019-04-11T17:59:56.811Z,11.50
2019-04-11T18:02:27.353Z,11.40
2019-04-11T18:04:58.971Z,11.30
2019-04-11T18:07:28.818Z,11.30
2019-04-11T18:09:58.549Z,11.30
2019-04-11T18:12:28.017Z,11.20
2019-04-11T18:14:57.435Z,11.10
2019-04-11T18:17:26.890Z,11.10
2019-04-11T18:19:56.425Z,11.10
2019-04-11T18:22:25.897Z,11.00
2019-04-11T18:24:55.768Z,11.00
2019-04-11T18:27:25.732Z,11.10
2019-04-11T18:29:56.571Z,11.10
2019-04-11T18:32:26.054Z,11.00
2019-04-11T18:34:55.398Z,11.10
2019-04-11T18:37:25.352Z,11.10
2019-04-11T18:39:54.819Z,11.10
2019-04-11T18:42:24.384Z,11.10
2019-04-11T18:44:53.867Z,11.00
2019-04-11T18:47:23.515Z,11.00
2019-04-11T18:49:53.344Z,11.10
2019-04-11T18:52:25.100Z,11.00
2019-04-11T18:54:54.459Z,11.00
2019-04-11T18:57:23.809Z,10.90
2019-04-11T18:59:53.154Z,10.80
2019-04-11T19:02:23.334Z,10.70
2019-04-11T19:04:52.682Z,10.70
2019-04-11T19:07:27.668Z,10.60
2019-04-11T19:09:53.282Z,10.50
2019-04-11T19:12:22.623Z,10.40
2019-04-11T19:14:51.978Z,10.30
2019-04-11T19:17:21.324Z,10.20
2019-04-11T19:19:50.674Z,10.10
2019-04-11T19:22:34.558Z,10.10
2019-04-11T19:24:51.093Z,9.90
2019-04-11T19:27:20.697Z,9.80
2019-04-11T19:29:50.054Z,9.70
2019-04-11T19:32:19.734Z,9.50
2019-04-11T19:34:49.089Z,9.30
2019-04-11T19:37:18.424Z,9.20
2019-04-11T19:39:47.758Z,9.00
2019-04-11T19:42:19.538Z,8.80
2019-04-11T19:44:49.703Z,8.80
2019-04-11T19:47:21.655Z,8.70
2019-04-11T19:49:50.633Z,8.60
2019-04-11T19:52:19.996Z,8.50
2019-04-11T19:54:49.330Z,8.40
2019-04-11T19:57:18.681Z,8.30
2019-04-11T19:59:48.017Z,8.30
2019-04-11T20:02:17.368Z,8.30
2019-04-11T20:04:46.793Z,8.20
2019-04-11T20:07:16.398Z,8.00
2019-04-11T20:09:45.731Z,8.00
2019-04-11T20:12:15.064Z,8.00
2019-04-11T20:14:44.407Z,8.00
2019-04-11T20:17:13.749Z,7.90
2019-04-11T20:19:43.081Z,7.80
2019-04-11T20:22:12.421Z,7.80
2019-04-11T20:24:45.956Z,7.80
2019-04-11T20:27:12.819Z,7.70
2019-04-11T20:29:42.224Z,7.70
2019-04-11T20:32:11.572Z,7.60
2019-04-11T20:34:40.916Z,7.60
2019-04-11T20:37:13.005Z,7.50
2019-04-11T20:39:41.316Z,7.50
2019-04-11T20:42:10.641Z,7.50
2019-04-11T20:44:39.986Z,7.50
2019-04-11T20:47:09.315Z,7.50
2019-04-11T20:49:40.302Z,7.50
2019-04-11T20:52:09.638Z,7.50
2019-04-11T20:54:39.185Z,7.50
2019-04-11T20:57:11.917Z,7.50
2019-04-11T20:59:42.256Z,7.50
2019-04-11T21:02:10.823Z,7.50
2019-04-11T21:04:40.253Z,7.50
2019-04-11T21:07:09.593Z,7.50
2019-04-11T21:09:38.929Z,7.40
2019-04-11T21:12:08.269Z,7.50
2019-04-11T21:14:37.604Z,7.50
2019-04-11T21:17:06.932Z,7.50
2019-04-11T21:19:36.277Z,7.50
2019-04-11T21:22:05.610Z,7.50
2019-04-11T21:24:34.940Z,7.50
2019-04-11T21:27:04.647Z,7.60
2019-04-11T21:29:33.990Z,7.60
2019-04-11T21:32:03.937Z,7.60
2019-04-11T21:34:33.283Z,7.60
2019-04-11T21:37:02.837Z,7.60
2019-04-11T21:39:32.126Z,7.60
2019-04-11T21:42:05.845Z,7.60
2019-04-11T21:44:35.983Z,7.60
2019-04-11T21:47:03.824Z,7.60
2019-04-11T21:49:36.775Z,7.50
2019-04-11T21:52:04.172Z,7.60
2019-04-11T21:54:33.513Z,7.50
2019-04-11T21:57:02.849Z,7.50
2019-04-11T21:59:32.212Z,7.40
2019-04-11T22:02:01.598Z,7.40
2019-04-11T22:04:31.240Z,7.40
2019-04-11T22:07:01.453Z,7.50
2019-04-11T22:09:33.086Z,7.50
2019-04-11T22:12:01.843Z,7.40
2019-04-11T22:14:31.173Z,7.40
2019-04-11T22:17:00.519Z,7.40
2019-04-11T22:19:29.868Z,7.40
2019-04-11T22:21:59.227Z,7.40
2019-04-11T22:24:28.570Z,7.40
2019-04-11T22:26:57.915Z,7.40
2019-04-11T22:29:27.260Z,7.30
2019-04-11T22:31:56.867Z,7.30
2019-04-11T22:34:28.780Z,7.30
2019-04-11T22:37:00.076Z,7.30
2019-04-11T22:39:31.461Z,7.30
2019-04-11T22:42:00.942Z,7.30
2019-04-11T22:44:30.273Z,7.30
2019-04-11T22:46:59.611Z,7.30
2019-04-11T22:49:28.944Z,7.30
2019-04-11T22:51:58.379Z,7.30
2019-04-11T22:54:27.709Z,7.30
2019-04-11T22:56:57.054Z,7.40
2019-04-11T22:59:26.399Z,7.30
2019-04-11T23:01:57.385Z,7.30
2019-04-11T23:04:26.775Z,7.20
2019-04-11T23:06:56.116Z,7.30
2019-04-11T23:09:25.464Z,7.20
2019-04-11T23:11:54.812Z,7.20
2019-04-11T23:14:24.151Z,7.20
2019-04-11T23:16:53.491Z,7.10
2019-04-11T23:19:22.847Z,7.10
2019-04-11T23:21:52.186Z,7.10
2019-04-11T23:24:21.527Z,7.10
2019-04-11T23:26:50.874Z,7.00
2019-04-11T23:29:20.225Z,7.00
2019-04-11T23:31:50.846Z,7.10
2019-04-11T23:34:22.115Z,7.10
2019-04-11T23:36:51.996Z,7.10
2019-04-11T23:39:22.938Z,7.10
2019-04-11T23:41:52.395Z,7.10
2019-04-11T23:44:21.728Z,7.10
2019-04-11T23:46:51.993Z,7.00
2019-04-11T23:49:24.747Z,7.00
2019-04-11T23:51:55.714Z,7.00
2019-04-11T23:54:24.091Z,7.00
2019-04-11T23:56:53.435Z,7.00
2019-04-11T23:59:22.768Z,7.00
